createdAt,value
2018-02-20T00:00:38.159Z,22.67
2018-02-20T00:01:44.573Z,23.12
2018-02-20T00:02:50.762Z,19.90
2018-02-20T00:03:56.706Z,22.08
2018-02-20T00:05:02.856Z,22.55
2018-02-20T00:06:09.111Z,21.60
2018-02-20T00:07:15.288Z,23.65
2018-02-20T00:08:21.477Z,22.70
2018-02-20T00:09:27.715Z,23.98
2018-02-20T00:10:33.962Z,23.42
2018-02-20T00:11:40.206Z,22.13
2018-02-20T00:12:46.441Z,21.52
2018-02-20T00:13:52.373Z,21.52
2018-02-20T00:14:58.564Z,22.15
2018-02-20T00:16:04.956Z,21.37
2018-02-20T00:17:11.312Z,23.38
2018-02-20T00:18:17.464Z,22.95
2018-02-20T00:19:23.609Z,23.60
2018-02-20T00:20:29.807Z,22.33
2018-02-20T00:21:36.018Z,21.27
2018-02-20T00:22:42.169Z,21.17
2018-02-20T00:23:48.333Z,21.58
2018-02-20T00:24:54.535Z,22.92
2018-02-20T00:26:00.781Z,22.92
2018-02-20T00:27:07.082Z,21.87
2018-02-20T00:28:13.010Z,21.10
2018-02-20T00:29:19.581Z,22.20
2018-02-20T00:30:25.780Z,24.65
2018-02-20T00:31:32.051Z,21.25
2018-02-20T00:32:38.267Z,21.25
2018-02-20T00:33:44.098Z,21.50
2018-02-20T00:34:50.376Z,22.15
2018-02-20T00:35:56.571Z,22.08
2018-02-20T00:37:02.704Z,23.30
2018-02-20T00:38:08.895Z,22.67
2018-02-20T00:39:15.053Z,21.42
2018-02-20T00:40:20.924Z,20.35
2018-02-20T00:41:27.474Z,22.92
2018-02-20T00:42:33.709Z,23.35
2018-02-20T00:43:39.862Z,24.67
2018-02-20T00:44:46.123Z,26.02
2018-02-20T00:45:52.320Z,22.83
2018-02-20T00:46:58.233Z,24.10
2018-02-20T00:48:04.443Z,23.17
2018-02-20T00:49:10.628Z,24.30
2018-02-20T00:50:16.780Z,22.80
2018-02-20T00:51:22.955Z,23.87
2018-02-20T00:52:34.306Z,24.40
2018-02-20T00:53:40.539Z,22.70
2018-02-20T00:54:46.697Z,25.17
2018-02-20T00:55:52.873Z,24.17
2018-02-20T00:56:58.694Z,24.20
2018-02-20T00:58:04.988Z,22.80
2018-02-20T00:59:12.851Z,23.45
2018-02-20T01:00:19.639Z,22.25
2018-02-20T01:01:27.177Z,24.40
2018-02-20T01:02:36.234Z,23.50
2018-02-20T01:03:42.434Z,23.25
2018-02-20T01:04:48.621Z,24.27
2018-02-20T01:05:54.814Z,23.27
2018-02-20T01:07:01.055Z,23.45
2018-02-20T01:08:07.305Z,24.92
2018-02-20T01:09:13.467Z,23.58
2018-02-20T01:10:19.378Z,22.70
2018-02-20T01:11:25.304Z,23.30
2018-02-20T01:12:31.470Z,23.25
2018-02-20T01:13:37.394Z,22.92
2018-02-20T01:14:43.650Z,22.85
2018-02-20T01:15:49.927Z,23.20
2018-02-20T01:17:01.265Z,22.17
2018-02-20T01:18:07.492Z,24.52
2018-02-20T01:19:13.778Z,23.50
2018-02-20T01:20:19.950Z,21.83
2018-02-20T01:21:30.068Z,22.58
2018-02-20T01:22:36.359Z,23.52
2018-02-20T01:23:42.520Z,23.02
2018-02-20T01:24:48.748Z,21.37
2018-02-20T01:25:54.901Z,22.48
2018-02-20T01:27:01.102Z,21.25
2018-02-20T01:28:07.076Z,23.90
2018-02-20T01:29:13.302Z,23.08
2018-02-20T01:30:20.473Z,22.55
2018-02-20T01:31:26.908Z,21.95
2018-02-20T01:32:33.078Z,24.55
2018-02-20T01:33:39.263Z,24.23
2018-02-20T01:34:45.432Z,23.60
2018-02-20T01:35:51.660Z,23.73
2018-02-20T01:36:57.869Z,23.38
2018-02-20T01:38:04.053Z,23.35
2018-02-20T01:39:10.234Z,22.80
2018-02-20T01:40:16.402Z,22.83
2018-02-20T01:41:22.604Z,23.98
2018-02-20T01:42:28.754Z,25.12
2018-02-20T01:43:34.917Z,23.45
2018-02-20T01:44:41.036Z,24.33
2018-02-20T01:45:47.222Z,23.52
2018-02-20T01:46:53.069Z,23.83
2018-02-20T01:47:59.528Z,24.42
2018-02-20T01:49:05.693Z,23.83
2018-02-20T01:50:11.833Z,24.48
2018-02-20T01:51:17.981Z,24.87
2018-02-20T01:52:24.105Z,24.40
2018-02-20T01:53:30.021Z,23.50
2018-02-20T01:54:36.246Z,23.17
2018-02-20T01:55:42.432Z,23.42
2018-02-20T01:56:48.572Z,24.42
2018-02-20T01:57:54.722Z,24.50
2018-02-20T01:59:00.947Z,24.30
2018-02-20T02:00:07.076Z,24.48
2018-02-20T02:01:12.983Z,23.00
2018-02-20T02:02:19.115Z,22.33
2018-02-20T02:03:25.012Z,22.83
2018-02-20T02:04:31.196Z,24.33
2018-02-20T02:05:37.426Z,23.35
2018-02-20T02:06:43.328Z,25.17
2018-02-20T02:07:49.521Z,23.60
2018-02-20T02:08:55.472Z,24.37
2018-02-20T02:10:01.655Z,23.70
2018-02-20T02:11:07.848Z,21.98
2018-02-20T02:12:13.986Z,22.80
2018-02-20T02:13:20.491Z,23.33
2018-02-20T02:14:26.657Z,22.98
2018-02-20T02:15:36.858Z,22.60
2018-02-20T02:16:43.048Z,21.95
2018-02-20T02:17:49.275Z,23.45
2018-02-20T02:18:55.443Z,23.45
2018-02-20T02:20:01.669Z,23.70
2018-02-20T02:21:07.858Z,23.50
2018-02-20T02:22:14.014Z,23.60
2018-02-20T02:23:19.897Z,24.33
2018-02-20T02:24:26.057Z,23.27
2018-02-20T02:25:32.954Z,24.67
2018-02-20T02:26:39.174Z,25.60
2018-02-20T02:27:45.342Z,24.87
2018-02-20T02:28:51.550Z,23.85
2018-02-20T02:29:57.743Z,24.25
2018-02-20T02:31:03.657Z,21.92
2018-02-20T02:32:09.918Z,24.80
2018-02-20T02:33:16.095Z,23.55
2018-02-20T02:34:22.246Z,21.65
2018-02-20T02:35:28.431Z,23.58
2018-02-20T02:36:34.731Z,24.70
2018-02-20T02:37:40.931Z,25.40
2018-02-20T02:38:47.173Z,24.87
2018-02-20T02:39:53.372Z,23.75
2018-02-20T02:40:59.554Z,25.37
2018-02-20T02:42:08.618Z,21.50
2018-02-20T02:43:14.841Z,22.75
2018-02-20T02:44:21.095Z,22.10
2018-02-20T02:45:27.243Z,23.87
2018-02-20T02:46:33.424Z,23.10
2018-02-20T02:47:39.366Z,24.25
2018-02-20T02:48:45.631Z,24.10
2018-02-20T02:49:51.875Z,25.30
2018-02-20T02:50:58.112Z,24.10
2018-02-20T02:52:04.312Z,23.20
2018-02-20T02:53:10.189Z,24.45
2018-02-20T02:54:16.347Z,22.17
2018-02-20T02:55:22.525Z,23.35
2018-02-20T02:56:28.755Z,22.90
2018-02-20T02:57:34.942Z,22.83
2018-02-20T02:58:41.143Z,23.62
2018-02-20T02:59:50.910Z,20.33
2018-02-20T03:00:57.088Z,23.67
2018-02-20T03:02:03.271Z,23.42
2018-02-20T03:03:09.472Z,21.62
2018-02-20T03:04:15.658Z,21.70
2018-02-20T03:05:21.794Z,23.50
2018-02-20T03:06:28.877Z,22.50
2018-02-20T03:07:34.828Z,22.60
2018-02-20T03:08:40.760Z,23.15
2018-02-20T03:09:46.966Z,21.55
2018-02-20T03:10:53.134Z,23.05
2018-02-20T03:11:59.294Z,21.70
2018-02-20T03:13:05.519Z,22.67
2018-02-20T03:14:11.718Z,24.70
2018-02-20T03:15:18.769Z,23.15
2018-02-20T03:16:24.972Z,22.87
2018-02-20T03:17:30.931Z,22.80
2018-02-20T03:18:37.165Z,24.87
2018-02-20T03:19:43.070Z,21.98
2018-02-20T03:20:49.280Z,23.15
2018-02-20T03:21:55.478Z,24.08
2018-02-20T03:23:01.678Z,22.33
2018-02-20T03:24:07.841Z,23.52
2018-02-20T03:25:14.006Z,23.50
2018-02-20T03:26:20.194Z,23.73
2018-02-20T03:27:26.408Z,22.35
2018-02-20T03:28:32.588Z,24.63
2018-02-20T03:29:38.802Z,22.10
2018-02-20T03:30:44.945Z,23.30
2018-02-20T03:31:51.099Z,23.33
2018-02-20T03:32:57.304Z,21.80
2018-02-20T03:34:03.428Z,21.65
2018-02-20T03:35:09.646Z,23.67
2018-02-20T03:36:15.872Z,22.90
2018-02-20T03:37:22.053Z,23.40
2018-02-20T03:38:28.274Z,23.83
2018-02-20T03:39:34.875Z,21.75
2018-02-20T03:40:41.150Z,21.80
2018-02-20T03:41:47.311Z,21.70
2018-02-20T03:42:53.487Z,20.62
2018-02-20T03:43:59.677Z,21.45
2018-02-20T03:45:10.994Z,21.27
2018-02-20T03:46:17.229Z,22.48
2018-02-20T03:47:23.414Z,22.48
2018-02-20T03:48:29.964Z,19.50
2018-02-20T03:49:36.658Z,20.92
2018-02-20T03:50:42.946Z,20.98
2018-02-20T03:51:49.161Z,22.52
2018-02-20T03:52:59.341Z,23.40
2018-02-20T03:54:05.531Z,23.73
2018-02-20T03:55:11.436Z,21.33
2018-02-20T03:56:17.705Z,22.62
2018-02-20T03:57:23.908Z,22.30
2018-02-20T03:58:30.117Z,23.05
2018-02-20T03:59:36.308Z,23.75
2018-02-20T04:00:42.569Z,22.85
2018-02-20T04:01:48.787Z,23.80
2018-02-20T04:02:55.033Z,23.20
2018-02-20T04:04:01.239Z,22.25
2018-02-20T04:05:07.437Z,22.40
2018-02-20T04:06:13.637Z,22.52
2018-02-20T04:07:19.807Z,23.15
2018-02-20T04:08:26.044Z,23.38
2018-02-20T04:09:32.763Z,23.62
2018-02-20T04:10:40.071Z,22.58
2018-02-20T04:11:47.440Z,22.80
2018-02-20T04:12:54.370Z,23.80
2018-02-20T04:14:01.897Z,22.58
2018-02-20T04:15:08.987Z,23.00
2018-02-20T04:16:19.411Z,24.50
2018-02-20T04:17:27.460Z,22.75
2018-02-20T04:18:34.823Z,22.85
2018-02-20T04:19:42.288Z,22.67
2018-02-20T04:20:48.972Z,22.87
2018-02-20T04:21:55.363Z,21.83
2018-02-20T04:23:02.447Z,22.05
2018-02-20T04:24:12.324Z,22.48
2018-02-20T04:25:19.260Z,22.55
2018-02-20T04:26:26.610Z,20.90
2018-02-20T04:27:34.358Z,22.77
2018-02-20T04:28:42.091Z,21.12
2018-02-20T04:29:49.025Z,22.62
2018-02-20T04:30:56.153Z,20.52
2018-02-20T04:32:03.388Z,20.90
2018-02-20T04:33:11.713Z,21.48
2018-02-20T04:34:18.568Z,20.42
2018-02-20T04:35:25.170Z,20.48
2018-02-20T04:36:32.282Z,19.67
2018-02-20T04:37:39.392Z,20.00
2018-02-20T04:38:47.184Z,21.17
2018-02-20T04:39:54.444Z,21.23
2018-02-20T04:41:02.463Z,21.00
2018-02-20T04:42:09.525Z,21.20
2018-02-20T04:43:16.225Z,22.02
2018-02-20T04:44:22.533Z,21.10
2018-02-20T04:45:28.777Z,21.35
2018-02-20T04:46:35.974Z,21.45
2018-02-20T04:47:42.445Z,21.10
2018-02-20T04:48:48.655Z,23.20
2018-02-20T04:49:54.841Z,20.88
2018-02-20T04:51:01.656Z,20.23
2018-02-20T04:52:09.001Z,20.80
2018-02-20T04:53:15.287Z,21.52
2018-02-20T04:54:22.977Z,22.27
2018-02-20T04:55:30.680Z,20.55
2018-02-20T04:56:37.304Z,22.10
2018-02-20T04:57:43.463Z,19.77
2018-02-20T04:58:49.676Z,21.60
2018-02-20T04:59:55.835Z,21.27
2018-02-20T05:01:02.025Z,21.50
2018-02-20T05:02:08.224Z,22.80
2018-02-20T05:03:14.439Z,22.45
2018-02-20T05:04:20.616Z,24.77
2018-02-20T05:05:26.776Z,27.50
2018-02-20T05:06:33.033Z,23.98
2018-02-20T05:07:39.270Z,23.80
2018-02-20T05:08:45.652Z,23.65
2018-02-20T05:09:54.781Z,23.87
2018-02-20T05:11:00.975Z,23.33
2018-02-20T05:12:07.201Z,24.42
2018-02-20T05:13:13.393Z,27.95
2018-02-20T05:14:19.740Z,30.95
2018-02-20T05:15:25.945Z,31.10
2018-02-20T05:16:32.113Z,30.75
2018-02-20T05:17:38.259Z,30.55
2018-02-20T05:18:44.458Z,27.40
2018-02-20T05:19:50.386Z,27.05
2018-02-20T05:20:56.810Z,27.55
2018-02-20T05:22:03.151Z,25.48
2018-02-20T05:23:09.683Z,25.08
2018-02-20T05:24:15.895Z,25.58
2018-02-20T05:25:22.077Z,25.15
2018-02-20T05:26:28.281Z,23.85
2018-02-20T05:27:34.761Z,23.58
2018-02-20T05:28:41.135Z,23.58
2018-02-20T05:29:47.957Z,26.85
2018-02-20T05:30:53.852Z,24.05
2018-02-20T05:31:59.985Z,25.23
2018-02-20T05:33:06.171Z,24.70
2018-02-20T05:34:12.338Z,23.12
2018-02-20T05:35:18.610Z,23.98
2018-02-20T05:36:24.924Z,23.25
2018-02-20T05:37:31.156Z,21.77
2018-02-20T05:38:37.357Z,23.00
2018-02-20T05:39:43.592Z,22.80
2018-02-20T05:40:49.805Z,22.55
2018-02-20T05:41:55.996Z,34.42
2018-02-20T05:43:02.309Z,27.35
2018-02-20T05:44:08.481Z,28.40
2018-02-20T05:45:14.685Z,27.50
2018-02-20T05:46:20.852Z,28.73
2018-02-20T05:47:27.133Z,27.05
2018-02-20T05:48:33.334Z,27.85
2018-02-20T05:49:39.629Z,27.00
2018-02-20T05:50:45.861Z,26.73
2018-02-20T05:51:52.006Z,24.10
2018-02-20T05:52:58.196Z,26.62
2018-02-20T05:54:04.328Z,28.02
2018-02-20T05:55:10.512Z,28.27
2018-02-20T05:56:16.675Z,29.42
2018-02-20T05:57:22.819Z,29.92
2018-02-20T05:58:28.999Z,31.10
2018-02-20T05:59:35.197Z,31.42
2018-02-20T06:00:41.377Z,33.00
2018-02-20T06:01:47.380Z,33.72
2018-02-20T06:02:53.587Z,33.30
2018-02-20T06:03:59.745Z,33.97
2018-02-20T06:05:05.614Z,32.28
2018-02-20T06:06:11.817Z,35.58
2018-02-20T06:07:18.006Z,31.98
2018-02-20T06:08:24.201Z,37.92
2018-02-20T06:09:30.400Z,38.13
2018-02-20T06:10:36.583Z,39.50
2018-02-20T06:11:42.889Z,39.55
2018-02-20T06:12:49.099Z,39.38
2018-02-20T06:13:55.272Z,38.20
2018-02-20T06:15:01.472Z,36.70
2018-02-20T06:16:07.622Z,34.38
2018-02-20T06:17:13.764Z,35.13
2018-02-20T06:18:19.881Z,35.00
2018-02-20T06:19:25.791Z,36.63
2018-02-20T06:20:31.972Z,34.35
2018-02-20T06:21:37.940Z,34.53
2018-02-20T06:22:44.203Z,30.15
2018-02-20T06:23:50.371Z,29.87
2018-02-20T06:24:56.516Z,28.90
2018-02-20T06:26:03.312Z,29.50
2018-02-20T06:27:10.109Z,29.75
2018-02-20T06:28:16.285Z,27.15
2018-02-20T06:29:22.452Z,30.05
2018-02-20T06:30:28.896Z,31.70
2018-02-20T06:31:35.310Z,30.42
2018-02-20T06:32:43.480Z,32.22
2018-02-20T06:33:49.620Z,32.33
2018-02-20T06:34:55.795Z,35.50
2018-02-20T06:36:01.924Z,33.92
2018-02-20T06:37:08.326Z,34.80
2018-02-20T06:38:14.442Z,33.50
2018-02-20T06:39:24.704Z,30.17
2018-02-20T06:40:30.908Z,27.42
2018-02-20T06:41:37.110Z,28.45
2018-02-20T06:42:43.256Z,30.33
2018-02-20T06:43:49.408Z,29.67
2018-02-20T06:44:55.615Z,30.10
2018-02-20T06:46:01.799Z,30.45
2018-02-20T06:47:07.982Z,29.55
2018-02-20T06:48:13.800Z,27.42
2018-02-20T06:49:19.999Z,27.13
2018-02-20T06:50:26.168Z,26.40
2018-02-20T06:51:32.354Z,26.33
2018-02-20T06:52:38.544Z,25.50
2018-02-20T06:53:44.686Z,26.35
2018-02-20T06:54:50.832Z,23.87
2018-02-20T06:55:57.044Z,24.25
2018-02-20T06:57:03.202Z,26.92
2018-02-20T06:58:09.366Z,25.20
2018-02-20T06:59:15.554Z,24.67
2018-02-20T07:00:21.755Z,26.17
2018-02-20T07:01:27.964Z,26.55
2018-02-20T07:02:34.249Z,27.33
2018-02-20T07:03:40.747Z,26.55
2018-02-20T07:04:46.924Z,26.80
2018-02-20T07:05:53.094Z,26.62
2018-02-20T07:06:59.225Z,27.08
2018-02-20T07:08:05.831Z,24.80
2018-02-20T07:09:12.101Z,25.48
2018-02-20T07:10:18.821Z,26.60
2018-02-20T07:11:24.979Z,27.42
2018-02-20T07:12:31.181Z,29.60
2018-02-20T07:13:37.369Z,28.08
2018-02-20T07:14:43.352Z,27.40
2018-02-20T07:15:49.775Z,27.95
2018-02-20T07:16:55.955Z,26.80
2018-02-20T07:18:02.124Z,26.45
2018-02-20T07:19:08.275Z,26.30
2018-02-20T07:20:14.531Z,28.10
2018-02-20T07:21:20.733Z,26.80
2018-02-20T07:22:26.892Z,26.62
2018-02-20T07:23:35.069Z,28.02
2018-02-20T07:24:41.260Z,27.27
2018-02-20T07:25:47.403Z,25.85
2018-02-20T07:26:53.572Z,25.92
2018-02-20T07:27:59.749Z,26.60
2018-02-20T07:29:05.913Z,27.67
2018-02-20T07:30:12.063Z,27.08
2018-02-20T07:31:23.340Z,28.58
2018-02-20T07:32:29.566Z,27.33
2018-02-20T07:33:35.733Z,25.77
2018-02-20T07:34:41.981Z,26.75
2018-02-20T07:35:48.132Z,27.83
2018-02-20T07:36:54.425Z,28.23
2018-02-20T07:38:00.577Z,26.62
2018-02-20T07:39:06.764Z,27.75
2018-02-20T07:40:13.354Z,25.95
2018-02-20T07:41:27.589Z,27.33
2018-02-20T07:42:33.757Z,28.23
2018-02-20T07:43:39.923Z,27.85
2018-02-20T07:44:50.033Z,28.10
2018-02-20T07:45:56.264Z,25.77
2018-02-20T07:47:02.654Z,28.33
2018-02-20T07:48:08.491Z,27.55
2018-02-20T07:49:14.714Z,29.05
2018-02-20T07:50:20.878Z,29.12
2018-02-20T07:51:27.054Z,28.23
2018-02-20T07:52:33.292Z,28.15
2018-02-20T07:53:39.347Z,26.12
2018-02-20T07:54:45.537Z,27.33
2018-02-20T07:55:51.944Z,27.73
2018-02-20T07:56:58.181Z,28.38
2018-02-20T07:58:04.372Z,27.33
2018-02-20T07:59:10.494Z,27.55
2018-02-20T08:00:16.671Z,29.48
2018-02-20T08:01:22.529Z,27.37
2018-02-20T08:02:28.745Z,28.25
2018-02-20T08:03:34.999Z,29.23
2018-02-20T08:04:41.309Z,31.00
2018-02-20T08:05:47.125Z,26.90
2018-02-20T08:06:53.253Z,29.77
2018-02-20T08:07:59.487Z,28.17
2018-02-20T08:09:05.006Z,29.20
2018-02-20T08:10:11.147Z,30.52
2018-02-20T08:11:17.352Z,28.85
2018-02-20T08:12:23.471Z,30.25
2018-02-20T08:13:29.649Z,28.83
2018-02-20T08:14:35.490Z,31.73
2018-02-20T08:15:41.670Z,29.35
2018-02-20T08:16:47.841Z,30.45
2018-02-20T08:17:54.023Z,29.73
2018-02-20T08:19:00.158Z,31.92
2018-02-20T08:20:10.246Z,31.23
2018-02-20T08:21:16.471Z,28.48
2018-02-20T08:22:22.629Z,30.08
2018-02-20T08:23:28.760Z,30.75
2018-02-20T08:24:34.919Z,28.60
2018-02-20T08:25:41.129Z,30.58
2018-02-20T08:26:47.327Z,31.65
2018-02-20T08:27:54.345Z,31.95
2018-02-20T08:29:00.524Z,27.92
2018-02-20T08:30:06.690Z,28.55
2018-02-20T08:31:12.813Z,32.55
2018-02-20T08:32:19.182Z,29.77
2018-02-20T08:33:25.349Z,31.15
2018-02-20T08:34:31.519Z,30.95
2018-02-20T08:35:37.651Z,30.02
2018-02-20T08:36:43.792Z,33.10
2018-02-20T08:37:50.000Z,31.33
2018-02-20T08:38:56.229Z,32.80
2018-02-20T08:40:02.412Z,31.25
2018-02-20T08:41:08.624Z,31.75
2018-02-20T08:42:14.786Z,33.22
2018-02-20T08:43:20.914Z,33.50
2018-02-20T08:44:27.072Z,33.83
2018-02-20T08:45:33.294Z,30.80
2018-02-20T08:46:39.486Z,32.75
2018-02-20T08:47:45.620Z,32.40
2018-02-20T08:48:51.901Z,30.60
2018-02-20T08:49:57.811Z,34.78
2018-02-20T08:51:03.721Z,31.12
2018-02-20T08:52:09.919Z,32.63
2018-02-20T08:53:16.127Z,33.20
2018-02-20T08:54:22.273Z,32.50
2018-02-20T08:55:28.453Z,32.17
2018-02-20T08:56:34.625Z,32.55
2018-02-20T08:57:40.895Z,31.45
2018-02-20T08:58:47.029Z,34.13
2018-02-20T08:59:53.207Z,32.50
2018-02-20T09:00:59.333Z,32.30
2018-02-20T09:02:05.189Z,32.58
2018-02-20T09:03:10.716Z,33.95
2018-02-20T09:04:16.953Z,32.00
2018-02-20T09:05:23.107Z,35.72
2018-02-20T09:06:29.277Z,32.75
2018-02-20T09:07:35.505Z,32.60
2018-02-20T09:08:41.707Z,32.17
2018-02-20T09:09:47.926Z,32.50
2018-02-20T09:10:54.878Z,30.88
2018-02-20T09:12:00.999Z,33.10
2018-02-20T09:13:07.151Z,32.05
2018-02-20T09:14:13.314Z,31.33
2018-02-20T09:15:19.535Z,32.15
2018-02-20T09:16:25.783Z,32.40
2018-02-20T09:17:34.913Z,33.35
2018-02-20T09:18:41.151Z,33.15
2018-02-20T09:19:47.557Z,33.13
2018-02-20T09:20:53.742Z,34.90
2018-02-20T09:21:59.982Z,33.45
2018-02-20T09:23:06.207Z,33.65
2018-02-20T09:24:12.331Z,36.03
2018-02-20T09:25:18.442Z,32.47
2018-02-20T09:26:24.600Z,35.08
2018-02-20T09:27:30.861Z,34.92
2018-02-20T09:28:37.085Z,33.92
2018-02-20T09:29:43.347Z,35.72
2018-02-20T09:30:49.504Z,33.70
2018-02-20T09:31:55.631Z,30.02
2018-02-20T09:33:01.758Z,34.33
2018-02-20T09:34:07.976Z,32.72
2018-02-20T09:35:14.156Z,31.42
2018-02-20T09:36:20.293Z,31.87
2018-02-20T09:37:26.480Z,34.90
2018-02-20T09:38:32.650Z,35.03
2018-02-20T09:39:38.843Z,36.38
2018-02-20T09:40:48.000Z,29.77
2018-02-20T09:41:54.122Z,34.78
2018-02-20T09:43:00.042Z,36.65
2018-02-20T09:44:06.292Z,33.85
2018-02-20T09:45:12.506Z,34.47
2018-02-20T09:46:18.474Z,34.65
2018-02-20T09:47:24.733Z,35.85
2018-02-20T09:48:30.904Z,35.67
2018-02-20T09:49:37.051Z,32.75
2018-02-20T09:50:43.254Z,36.65
2018-02-20T09:51:49.425Z,34.80
2018-02-20T09:52:55.595Z,36.45
2018-02-20T09:54:01.731Z,35.88
2018-02-20T09:55:07.905Z,33.95
2018-02-20T09:56:14.086Z,35.05
2018-02-20T09:57:20.250Z,35.70
2018-02-20T09:58:26.421Z,34.65
2018-02-20T09:59:32.618Z,34.00
2018-02-20T10:00:39.049Z,35.42
2018-02-20T10:01:45.228Z,37.03
2018-02-20T10:02:51.428Z,35.60
2018-02-20T10:03:57.599Z,34.53
2018-02-20T10:05:03.755Z,32.88
2018-02-20T10:06:09.769Z,35.25
2018-02-20T10:07:15.902Z,34.88
2018-02-20T10:08:22.058Z,35.50
2018-02-20T10:09:28.253Z,36.80
2018-02-20T10:10:34.454Z,34.72
2018-02-20T10:11:40.618Z,38.22
2018-02-20T10:12:46.512Z,35.97
2018-02-20T10:13:52.635Z,37.80
2018-02-20T10:14:58.867Z,34.22
2018-02-20T10:16:05.049Z,35.88
2018-02-20T10:17:11.188Z,35.13
2018-02-20T10:18:17.344Z,35.55
2018-02-20T10:19:23.497Z,35.10
2018-02-20T10:20:29.694Z,34.30
2018-02-20T10:21:35.927Z,32.42
2018-02-20T10:22:42.132Z,34.08
2018-02-20T10:23:48.288Z,34.03
2018-02-20T10:24:54.452Z,32.38
2018-02-20T10:26:00.609Z,31.75
2018-02-20T10:27:06.567Z,34.50
2018-02-20T10:28:12.829Z,34.50
2018-02-20T10:29:19.056Z,35.90
2018-02-20T10:30:25.206Z,35.28
2018-02-20T10:31:31.386Z,37.72
2018-02-20T10:32:37.562Z,33.53
2018-02-20T10:33:44.000Z,36.08
2018-02-20T10:34:50.192Z,35.28
2018-02-20T10:35:56.373Z,31.80
2018-02-20T10:37:02.540Z,32.75
2018-02-20T10:38:08.697Z,33.10
2018-02-20T10:39:15.137Z,33.88
2018-02-20T10:40:21.338Z,33.67
2018-02-20T10:41:27.509Z,33.85
2018-02-20T10:42:33.678Z,34.63
2018-02-20T10:43:39.876Z,32.40
2018-02-20T10:44:46.004Z,32.28
2018-02-20T10:45:52.180Z,36.20
2018-02-20T10:46:58.341Z,35.10
2018-02-20T10:48:03.809Z,32.95
2018-02-20T10:49:09.997Z,26.58
2018-02-20T10:50:16.576Z,32.60
2018-02-20T10:51:22.747Z,32.13
2018-02-20T10:52:28.948Z,33.40
2018-02-20T10:53:35.230Z,32.88
2018-02-20T10:54:41.443Z,31.40
2018-02-20T10:55:47.588Z,31.08
2018-02-20T10:56:53.777Z,33.63
2018-02-20T10:58:00.050Z,29.65
2018-02-20T10:59:06.212Z,32.67
2018-02-20T11:00:12.436Z,32.72
2018-02-20T11:01:20.435Z,32.17
2018-02-20T11:02:26.568Z,28.30
2018-02-20T11:03:32.977Z,29.65
2018-02-20T11:04:39.166Z,30.15
2018-02-20T11:05:45.544Z,29.23
2018-02-20T11:06:51.327Z,32.47
2018-02-20T11:07:58.413Z,33.03
2018-02-20T11:09:03.924Z,33.67
2018-02-20T11:10:10.569Z,33.42
2018-02-20T11:11:16.922Z,31.58
2018-02-20T11:12:22.732Z,33.45
2018-02-20T11:13:28.928Z,33.15
2018-02-20T11:14:35.076Z,33.40
2018-02-20T11:15:41.219Z,30.37
2018-02-20T11:16:47.435Z,30.33
2018-02-20T11:17:53.595Z,28.35
2018-02-20T11:18:59.713Z,29.98
2018-02-20T11:20:06.879Z,27.50
2018-02-20T11:21:13.067Z,28.40
2018-02-20T11:22:18.936Z,28.42
2018-02-20T11:23:24.841Z,31.27
2018-02-20T11:24:31.039Z,30.55
2018-02-20T11:25:37.194Z,31.70
2018-02-20T11:26:43.374Z,33.88
2018-02-20T11:27:49.505Z,35.40
2018-02-20T11:28:55.698Z,32.17
2018-02-20T11:30:01.838Z,33.80
2018-02-20T11:31:07.996Z,34.13
2018-02-20T11:32:14.158Z,35.55
2018-02-20T11:33:20.348Z,37.95
2018-02-20T11:34:26.464Z,33.33
2018-02-20T11:35:32.332Z,33.25
2018-02-20T11:36:38.510Z,36.60
2018-02-20T11:37:44.321Z,35.42
2018-02-20T11:38:50.481Z,36.15
2018-02-20T11:39:56.684Z,35.00
2018-02-20T11:41:02.849Z,33.70
2018-02-20T11:42:09.049Z,36.20
2018-02-20T11:43:15.192Z,32.90
2018-02-20T11:44:21.336Z,34.97
2018-02-20T11:45:27.528Z,34.10
2018-02-20T11:46:33.709Z,33.30
2018-02-20T11:47:39.908Z,33.38
2018-02-20T11:48:46.068Z,32.40
2018-02-20T11:49:52.194Z,31.75
2018-02-20T11:50:58.415Z,35.53
2018-02-20T11:52:04.609Z,30.98
2018-02-20T11:53:10.820Z,33.38
2018-02-20T11:54:17.042Z,33.67
2018-02-20T11:55:23.237Z,33.25
2018-02-20T11:56:29.388Z,32.42
2018-02-20T11:57:35.667Z,34.33
2018-02-20T11:58:41.861Z,32.63
2018-02-20T11:59:47.996Z,32.63
2018-02-20T12:00:54.175Z,34.08
2018-02-20T12:02:00.340Z,35.45
2018-02-20T12:03:06.480Z,35.90
2018-02-20T12:04:12.638Z,33.80
2018-02-20T12:05:18.837Z,34.08
2018-02-20T12:06:25.092Z,31.73
2018-02-20T12:07:36.431Z,34.45
2018-02-20T12:08:42.603Z,33.15
2018-02-20T12:09:48.826Z,35.75
2018-02-20T12:10:54.978Z,37.22
2018-02-20T12:12:01.183Z,35.47
2018-02-20T12:13:07.344Z,35.22
2018-02-20T12:14:13.500Z,35.17
2018-02-20T12:15:19.717Z,33.80
2018-02-20T12:16:25.901Z,36.10
2018-02-20T12:17:32.109Z,33.50
2018-02-20T12:18:38.262Z,35.20
2018-02-20T12:19:48.180Z,33.92
2018-02-20T12:20:54.295Z,33.30
2018-02-20T12:22:07.277Z,34.10
2018-02-20T12:23:13.407Z,35.63
2018-02-20T12:24:19.584Z,35.90
2018-02-20T12:25:25.729Z,33.80
2018-02-20T12:26:31.896Z,36.85
2018-02-20T12:27:38.033Z,33.45
2018-02-20T12:28:44.212Z,35.70
2018-02-20T12:29:50.408Z,35.42
2018-02-20T12:30:56.560Z,36.00
2018-02-20T12:32:02.756Z,34.20
2018-02-20T12:33:08.915Z,34.80
2018-02-20T12:34:15.081Z,33.13
2018-02-20T12:35:21.320Z,34.25
2018-02-20T12:36:27.602Z,33.42
2018-02-20T12:37:33.759Z,33.72
2018-02-20T12:38:39.930Z,34.28
2018-02-20T12:39:46.081Z,36.03
2018-02-20T12:40:52.245Z,32.97
2018-02-20T12:41:58.096Z,32.80
2018-02-20T12:43:04.283Z,35.55
2018-02-20T12:44:10.482Z,33.38
2018-02-20T12:45:16.889Z,33.33
2018-02-20T12:46:23.192Z,33.70
2018-02-20T12:47:29.417Z,32.03
2018-02-20T12:48:35.299Z,35.25
2018-02-20T12:49:41.456Z,33.28
2018-02-20T12:50:47.673Z,33.13
2018-02-20T12:51:53.860Z,34.70
2018-02-20T12:53:00.016Z,34.00
2018-02-20T12:54:07.064Z,35.42
2018-02-20T12:55:12.964Z,34.53
2018-02-20T12:56:18.867Z,32.10
2018-02-20T12:57:24.836Z,35.33
2018-02-20T12:58:31.045Z,34.97
2018-02-20T12:59:37.265Z,36.60
2018-02-20T13:00:43.480Z,33.85
2018-02-20T13:01:49.702Z,35.35
2018-02-20T13:02:55.887Z,34.25
2018-02-20T13:04:02.055Z,33.30
2018-02-20T13:05:08.302Z,33.45
2018-02-20T13:06:14.716Z,35.78
2018-02-20T13:07:20.892Z,29.70
2018-02-20T13:08:27.069Z,33.10
2018-02-20T13:09:33.065Z,32.05
2018-02-20T13:10:39.298Z,27.33
2018-02-20T13:11:45.555Z,32.35
2018-02-20T13:12:51.730Z,31.62
2018-02-20T13:13:57.938Z,33.38
2018-02-20T13:15:04.115Z,33.22
2018-02-20T13:16:15.738Z,34.03
2018-02-20T13:17:21.931Z,33.33
2018-02-20T13:18:28.211Z,34.90
2018-02-20T13:19:34.445Z,33.20
2018-02-20T13:20:40.606Z,33.60
2018-02-20T13:21:46.764Z,32.08
2018-02-20T13:22:52.880Z,34.00
2018-02-20T13:23:59.089Z,33.72
2018-02-20T13:25:04.562Z,33.40
2018-02-20T13:26:10.746Z,34.45
2018-02-20T13:27:17.016Z,33.85
2018-02-20T13:28:23.192Z,32.40
2018-02-20T13:29:29.303Z,34.97
2018-02-20T13:30:35.542Z,32.65
2018-02-20T13:31:41.954Z,34.53
2018-02-20T13:32:48.361Z,35.15
2018-02-20T13:33:54.570Z,33.15
2018-02-20T13:35:00.826Z,35.30
2018-02-20T13:36:07.053Z,33.42
2018-02-20T13:37:13.068Z,33.72
2018-02-20T13:38:19.279Z,32.70
2018-02-20T13:39:25.424Z,33.83
2018-02-20T13:40:31.664Z,34.00
2018-02-20T13:41:37.857Z,36.30
2018-02-20T13:42:44.039Z,33.17
2018-02-20T13:43:50.160Z,36.60
2018-02-20T13:44:56.340Z,34.08
2018-02-20T13:46:02.762Z,33.72
2018-02-20T13:47:09.003Z,35.28
2018-02-20T13:48:15.213Z,34.58
2018-02-20T13:49:21.368Z,32.80
2018-02-20T13:50:27.553Z,36.65
2018-02-20T13:51:37.465Z,32.47
2018-02-20T13:52:43.684Z,35.53
2018-02-20T13:53:50.341Z,35.78
2018-02-20T13:54:56.582Z,33.60
2018-02-20T13:56:02.769Z,33.67
2018-02-20T13:57:08.964Z,32.95
2018-02-20T13:58:15.168Z,32.38
2018-02-20T13:59:21.316Z,32.22
2018-02-20T14:00:27.466Z,33.55
2018-02-20T14:01:33.641Z,33.83
2018-02-20T14:02:39.825Z,35.13
2018-02-20T14:03:51.025Z,32.42
2018-02-20T14:04:57.223Z,35.00
2018-02-20T14:06:03.375Z,33.63
2018-02-20T14:07:09.534Z,33.40
2018-02-20T14:08:15.686Z,35.60
2018-02-20T14:09:21.902Z,33.17
2018-02-20T14:10:28.144Z,34.03
2018-02-20T14:11:34.284Z,33.35
2018-02-20T14:12:40.493Z,33.70
2018-02-20T14:13:46.617Z,34.28
2018-02-20T14:14:52.776Z,33.63